Time;durP1;ratioP1;P1;durP2;ratioP2;P2;SDS_P1;SDS_P2;PMS_P1;PMS_P2;Temp;Humidity;BMP_temperature;BMP_pressure;BME280_temperature;BME280_humidity;BME280_pressure;Samples;Min_cycle;Max_cycle;Signal;HPM_P1;HPM_P2
2021/06/15 00:00:12;;;;;;;6.80;3.70;;;18.20;1.00;;;;;;5032523;28;20029;-74
2021/06/15 00:02:37;;;;;;;7.65;3.58;;;18.20;1.00;;;;;;5030081;28;20028;-72
2021/06/15 00:05:04;;;;;;;8.32;3.60;;;18.20;1.00;;;;;;5034114;28;20036;-76
2021/06/15 00:07:30;;;;;;;6.03;3.03;;;18.10;1.00;;;;;;5035390;28;20108;-72
2021/06/15 00:09:55;;;;;;;8.13;3.55;;;18.10;1.00;;;;;;5035573;28;20452;-71
2021/06/15 00:12:21;;;;;;;5.90;3.55;;;18.00;1.00;;;;;;5035595;28;20040;-74
2021/06/15 00:14:46;;;;;;;9.70;3.20;;;18.00;1.00;;;;;;5034707;28;20041;-73
2021/06/15 00:17:12;;;;;;;3.88;3.47;;;17.90;1.00;;;;;;5034990;28;20025;-72
2021/06/15 00:19:38;;;;;;;5.30;3.40;;;17.90;1.00;;;;;;5032830;28;20172;-71
2021/06/15 00:22:04;;;;;;;3.90;3.45;;;17.80;13.70;;;;;;5035999;28;20029;-70
2021/06/15 00:24:29;;;;;;;5.47;3.20;;;17.80;23.50;;;;;;5035535;28;20109;-73
2021/06/15 00:26:55;;;;;;;6.75;3.80;;;17.70;22.90;;;;;;5036158;28;20056;-71
2021/06/15 00:29:21;;;;;;;5.90;3.20;;;17.70;59.00;;;;;;5036327;28;20033;-73
2021/06/15 00:31:47;;;;;;;7.18;3.80;;;17.80;90.90;;;;;;5037311;28;20017;-72
2021/06/15 00:34:12;;;;;;;3.65;3.35;;;17.70;90.20;;;;;;5036730;28;20108;-74
2021/06/15 00:36:38;;;;;;;4.00;3.00;;;17.70;86.40;;;;;;5031121;28;20117;-73
2021/06/15 00:39:04;;;;;;;6.45;3.65;;;17.60;79.90;;;;;;5036112;28;20099;-71
2021/06/15 00:41:29;;;;;;;5.07;3.53;;;17.60;92.40;;;;;;5036298;28;20053;-70
2021/06/15 00:43:55;;;;;;;4.65;3.33;;;17.60;92.50;;;;;;5036937;28;20489;-71
2021/06/15 00:46:20;;;;;;;6.50;3.50;;;17.60;76.30;;;;;;5036297;28;20025;-74
2021/06/15 00:48:46;;;;;;;4.85;3.50;;;17.60;99.90;;;;;;5032591;28;20034;-71
2021/06/15 00:51:14;;;;;;;4.15;2.95;;;17.60;99.90;;;;;;5036020;28;20064;-72
2021/06/15 00:53:39;;;;;;;4.80;3.80;;;17.50;99.90;;;;;;5036198;28;20037;-72
2021/06/15 00:56:05;;;;;;;6.90;3.92;;;17.40;99.90;;;;;;5036186;28;20021;-71
2021/06/15 00:58:31;;;;;;;8.43;3.60;;;17.40;99.90;;;;;;5035320;28;20389;-70
2021/06/15 01:00:57;;;;;;;6.70;4.38;;;17.40;99.90;;;;;;5035390;28;20025;-71
2021/06/15 01:03:26;;;;;;;5.60;3.42;;;17.50;99.90;;;;;;5035076;28;20030;-70
2021/06/15 01:05:53;;;;;;;4.78;3.67;;;17.40;99.90;;;;;;5035072;28;20096;-71
2021/06/15 01:08:47;;;;;;;4.85;3.80;;;17.30;99.90;;;;;;5034270;28;20081;-72
2021/06/15 01:11:37;;;;;;;5.45;3.33;;;17.30;99.90;;;;;;5036126;28;20029;-71
2021/06/15 01:14:08;;;;;;;6.82;3.60;;;17.20;99.90;;;;;;5034706;28;20036;-71
2021/06/15 01:17:12;;;;;;;;;;;17.20;99.90;;;;;;5043681;28;20045;-70
2021/06/15 01:20:05;;;;;;;4.18;3.78;;;17.10;99.90;;;;;;4995248;28;19914;-71
2021/06/15 01:23:09;;;;;;;5.68;3.78;;;17.10;99.90;;;;;;4990513;28;20474;-72
2021/06/15 01:26:15;;;;;;;4.90;3.83;;;17.20;99.90;;;;;;5013579;28;20126;-71
2021/06/15 01:28:50;;;;;;;8.52;3.60;;;17.10;99.90;;;;;;5014150;28;20449;-70
2021/06/15 01:31:24;;;;;;;4.65;3.60;;;17.10;99.90;;;;;;5015991;28;20025;-71
2021/06/15 01:33:54;;;;;;;6.07;3.50;;;17.00;99.90;;;;;;5014882;28;20029;-70
2021/06/15 01:36:24;;;;;;;7.82;4.28;;;17.00;99.90;;;;;;5015873;28;20034;-71
2021/06/15 01:39:05;;;;;;;5.25;3.90;;;17.00;99.90;;;;;;5017283;28;20022;-70
2021/06/15 01:41:34;;;;;;;4.30;3.40;;;16.90;99.90;;;;;;5017433;28;20076;-70
2021/06/15 01:44:05;;;;;;;7.57;4.03;;;16.90;99.90;;;;;;5014668;28;20026;-71
2021/06/15 01:46:36;;;;;;;4.68;3.35;;;16.80;99.90;;;;;;5026923;28;20022;-71
2021/06/15 01:49:04;;;;;;;;;;;16.80;99.90;;;;;;5033404;28;20032;-71
2021/06/15 01:51:31;;;;;;;4.45;4.05;;;16.80;99.90;;;;;;5032985;28;19905;-69
2021/06/15 01:54:10;;;;;;;6.03;4.20;;;16.80;99.90;;;;;;5033940;28;20028;-70
2021/06/15 01:56:41;;;;;;;4.80;4.18;;;16.80;99.90;;;;;;5034345;28;20516;-71
2021/06/15 01:59:13;;;;;;;4.57;3.47;;;16.70;99.90;;;;;;5034054;28;20057;-71
2021/06/15 02:01:44;;;;;;;7.18;4.45;;;16.70;99.90;;;;;;5034165;28;20091;-71
2021/06/15 02:04:11;;;;;;;5.43;4.20;;;16.60;99.90;;;;;;5034566;28;20045;-71
2021/06/15 02:06:38;;;;;;;6.43;4.25;;;16.60;99.90;;;;;;5034156;28;20094;-71
2021/06/15 02:09:06;;;;;;;7.45;4.03;;;16.60;99.90;;;;;;5034196;28;20030;-71
2021/06/15 02:11:33;;;;;;;6.90;3.90;;;16.60;99.90;;;;;;5034667;28;20040;-72
2021/06/15 02:14:04;;;;;;;4.60;4.20;;;16.50;99.90;;;;;;5034432;28;20489;-72
2021/06/15 02:16:30;;;;;;;10.32;4.30;;;16.50;99.90;;;;;;5034300;28;20021;-70
2021/06/15 02:18:57;;;;;;;5.32;3.85;;;16.50;99.90;;;;;;5032696;28;20507;-70
2021/06/15 02:21:26;;;;;;;7.13;3.92;;;16.40;99.90;;;;;;5033778;28;20028;-71
2021/06/15 02:23:57;;;;;;;4.40;3.88;;;16.40;99.90;;;;;;5033970;28;20112;-70
2021/06/15 02:26:24;;;;;;;4.95;4.07;;;16.40;99.90;;;;;;5033877;28;20029;-71
2021/06/15 02:28:50;;;;;;;6.03;4.00;;;16.40;99.90;;;;;;5032810;28;20109;-70
2021/06/15 02:31:26;;;;;;;8.13;4.55;;;16.30;99.90;;;;;;5033792;28;20068;-71
2021/06/15 02:33:54;;;;;;;10.48;4.70;;;16.20;99.90;;;;;;5034154;28;20402;-71
2021/06/15 02:36:26;;;;;;;6.63;3.97;;;16.20;99.90;;;;;;5034154;28;20030;-72
2021/06/15 02:38:56;;;;;;;6.68;3.92;;;16.30;99.90;;;;;;5033641;28;20465;-71
2021/06/15 02:41:23;;;;;;;4.90;3.60;;;16.40;99.90;;;;;;5035147;28;20025;-71
2021/06/15 02:43:51;;;;;;;6.20;4.47;;;16.40;99.90;;;;;;5035618;28;20063;-71
2021/06/15 02:46:18;;;;;;;7.20;4.28;;;16.30;99.90;;;;;;5042614;28;20025;-71
2021/06/15 02:48:50;;;;;;;6.15;3.58;;;16.30;99.90;;;;;;5036042;28;20041;-71
2021/06/15 02:51:16;;;;;;;4.55;4.13;;;16.20;99.90;;;;;;5033703;28;20033;-71
2021/06/15 02:53:47;;;;;;;4.50;3.85;;;16.20;99.90;;;;;;5033734;28;20033;-71
2021/06/15 02:56:17;;;;;;;3.90;3.50;;;16.20;99.90;;;;;;5034191;28;20014;-71
2021/06/15 02:58:44;;;;;;;5.30;4.77;;;16.10;99.90;;;;;;5034389;28;20392;-72
2021/06/15 03:01:10;;;;;;;4.45;4.05;;;16.00;99.90;;;;;;5033846;28;20512;-71
2021/06/15 03:03:37;;;;;;;4.63;4.22;;;16.00;99.90;;;;;;5034087;28;20022;-70
2021/06/15 03:06:04;;;;;;;8.18;5.32;;;16.00;99.90;;;;;;5034595;28;20035;-71
2021/06/15 03:08:30;;;;;;;6.63;4.10;;;16.00;99.90;;;;;;5036852;28;20092;-73
2021/06/15 03:10:55;;;;;;;8.73;4.63;;;16.00;99.90;;;;;;5035057;28;20544;-71
2021/06/15 03:13:36;;;;;;;9.43;3.92;;;15.90;99.90;;;;;;5033859;28;20052;-71
2021/06/15 03:16:05;;;;;;;5.00;3.92;;;15.90;99.90;;;;;;5032887;28;20062;-70
2021/06/15 03:18:36;;;;;;;6.53;5.57;;;15.90;99.90;;;;;;5033175;28;20021;-71
2021/06/15 03:21:17;;;;;;;5.70;3.85;;;15.90;99.90;;;;;;5032489;28;20033;-71
2021/06/15 03:23:54;;;;;;;5.72;3.63;;;15.90;99.90;;;;;;5032796;28;20649;-70
2021/06/15 03:26:38;;;;;;;7.75;4.00;;;15.90;99.90;;;;;;5032517;28;20447;-73
2021/06/15 03:29:08;;;;;;;4.85;4.43;;;15.90;99.90;;;;;;5032388;28;20159;-71
2021/06/15 03:31:38;;;;;;;5.95;4.03;;;15.90;99.90;;;;;;5031787;28;20358;-70
2021/06/15 03:34:04;;;;;;;4.15;3.85;;;15.90;99.90;;;;;;5031960;28;20087;-70
2021/06/15 03:36:31;;;;;;;6.45;4.15;;;16.00;99.90;;;;;;5032244;28;20013;-71
2021/06/15 03:38:59;;;;;;;5.40;3.80;;;16.10;99.90;;;;;;5031512;28;20018;-70
2021/06/15 03:41:26;;;;;;;8.23;4.35;;;16.40;99.90;;;;;;5032324;28;20036;-70
2021/06/15 03:43:57;;;;;;;6.13;4.13;;;16.50;99.90;;;;;;5031101;28;20471;-71
2021/06/15 03:46:24;;;;;;;9.98;5.00;;;16.70;99.90;;;;;;5024511;28;20018;-71
2021/06/15 03:48:52;;;;;;;5.35;3.75;;;17.00;99.90;;;;;;5031986;28;20053;-70
2021/06/15 03:51:23;;;;;;;6.45;4.15;;;17.10;99.90;;;;;;5030919;28;20021;-70
2021/06/15 03:53:50;;;;;;;6.28;3.63;;;17.10;99.90;;;;;;5032100;28;20464;-71
2021/06/15 03:56:17;;;;;;;9.35;3.83;;;17.10;99.90;;;;;;5034080;28;20053;-71
2021/06/15 03:58:44;;;;;;;7.03;4.07;;;17.20;99.90;;;;;;5036860;28;20048;-71
2021/06/15 04:01:13;;;;;;;9.50;3.53;;;17.20;99.90;;;;;;5035235;28;20064;-70
2021/06/15 04:03:40;;;;;;;6.45;3.83;;;17.40;99.90;;;;;;5032269;28;20029;-71
2021/06/15 04:06:09;;;;;;;8.07;4.03;;;17.50;99.90;;;;;;5032309;28;20030;-70
2021/06/15 04:08:36;;;;;;;5.78;3.85;;;17.70;43.60;;;;;;5032130;28;20044;-70
2021/06/15 04:11:04;;;;;;;7.20;4.00;;;18.00;1.00;;;;;;5032783;28;20026;-71
2021/06/15 04:13:31;;;;;;;7.28;4.68;;;18.00;1.00;;;;;;5031864;28;20036;-71
2021/06/15 04:15:57;;;;;;;4.88;3.90;;;18.00;1.00;;;;;;5039260;28;20030;-70
2021/06/15 04:18:25;;;;;;;7.57;4.40;;;18.00;1.00;;;;;;5043663;28;20425;-71
2021/06/15 04:20:58;;;;;;;9.60;4.13;;;18.20;1.00;;;;;;5031506;28;20029;-71
2021/06/15 04:23:30;;;;;;;8.10;3.58;;;18.20;1.00;;;;;;5033107;28;20037;-70
2021/06/15 04:25:56;;;;;;;4.50;3.58;;;18.60;1.00;;;;;;5031823;28;20036;-70
2021/06/15 04:28:22;;;;;;;5.47;3.45;;;19.00;99.90;;;;;;5032041;28;20033;-70
2021/06/15 04:30:50;;;;;;;8.38;4.50;;;19.30;99.90;;;;;;5031628;28;20416;-71
2021/06/15 04:33:18;;;;;;;6.82;4.50;;;19.50;1.00;;;;;;5031715;28;20029;-72
2021/06/15 04:35:51;;;;;;;6.18;4.40;;;19.50;1.00;;;;;;5031689;28;20022;-71
2021/06/15 04:38:33;;;;;;;10.00;5.28;;;19.30;1.00;;;;;;5031019;28;20029;-70
2021/06/15 04:41:04;;;;;;;6.60;3.80;;;19.40;1.00;;;;;;5032189;28;20560;-71
2021/06/15 04:43:55;;;;;;;7.57;4.40;;;19.80;99.90;;;;;;5034823;28;20017;-71
2021/06/15 04:46:31;;;;;;;7.80;4.70;;;20.10;92.50;;;;;;5026190;28;20026;-71
2021/06/15 04:49:11;;;;;;;8.30;3.45;;;20.70;99.90;;;;;;5034009;28;20029;-70
2021/06/15 04:51:38;;;;;;;11.82;3.85;;;21.60;90.30;;;;;;5037454;28;20040;-71
2021/06/15 04:54:05;;;;;;;5.63;3.65;;;22.10;99.90;;;;;;5035662;28;20025;-71
2021/06/15 04:56:30;;;;;;;8.40;4.22;;;22.50;99.90;;;;;;5034491;28;20053;-70
2021/06/15 04:58:59;;;;;;;8.35;3.47;;;22.60;1.00;;;;;;5036021;28;20075;-71
2021/06/15 05:01:26;;;;;;;4.65;3.03;;;23.20;1.00;;;;;;5035188;28;20025;-70
2021/06/15 05:03:54;;;;;;;7.25;3.60;;;24.40;99.90;;;;;;5036715;28;20030;-72
2021/06/15 05:06:20;;;;;;;4.22;3.00;;;24.20;99.90;;;;;;5035020;28;20029;-71
2021/06/15 05:08:53;;;;;;;5.47;3.10;;;25.60;1.00;;;;;;5035475;28;20181;-71
2021/06/15 05:11:20;;;;;;;4.80;3.28;;;25.40;1.00;;;;;;5035138;28;20112;-72
2021/06/15 05:13:46;;;;;;;10.52;3.45;;;24.50;1.00;;;;;;5034921;28;20032;-71
2021/06/15 05:16:13;;;;;;;4.32;2.88;;;25.10;1.00;;;;;;5035582;28;20440;-71
2021/06/15 05:18:39;;;;;;;4.95;3.40;;;25.90;99.90;;;;;;5036353;28;20025;-71
2021/06/15 05:21:13;;;;;;;10.10;3.72;;;25.90;99.90;;;;;;5035421;28;20683;-71
2021/06/15 05:23:57;;;;;;;7.93;4.00;;;26.70;99.90;;;;;;5035463;28;20436;-71
2021/06/15 05:26:24;;;;;;;9.35;3.95;;;27.00;99.90;;;;;;5035375;28;20398;-72
2021/06/15 05:28:51;;;;;;;6.95;3.70;;;26.80;99.90;;;;;;5035349;28;20108;-72
2021/06/15 05:31:16;;;;;;;7.82;4.15;;;27.10;99.90;;;;;;5035351;28;20032;-72
2021/06/15 05:33:42;;;;;;;5.50;4.00;;;27.20;99.90;;;;;;5035973;28;20033;-71
2021/06/15 05:36:08;;;;;;;5.63;4.55;;;26.00;99.90;;;;;;5036149;28;20044;-71
2021/06/15 05:38:33;;;;;;;10.23;4.65;;;26.60;99.90;;;;;;5034878;28;20025;-72
2021/06/15 05:40:59;;;;;;;5.78;4.10;;;27.10;99.90;;;;;;5034679;28;20061;-72
2021/06/15 05:43:25;;;;;;;8.02;3.38;;;26.70;99.90;;;;;;5034618;28;20418;-71
2021/06/15 05:45:51;;;;;;;11.48;4.03;;;26.40;99.90;;;;;;5032799;28;20072;-71
2021/06/15 05:48:16;;;;;;;12.18;5.38;;;27.00;99.90;;;;;;5034427;28;20029;-72
2021/06/15 05:50:42;;;;;;;7.85;4.40;;;25.60;99.90;;;;;;5054391;28;20010;-71
2021/06/15 05:53:08;;;;;;;11.77;4.50;;;26.60;99.90;;;;;;5038244;28;20037;-72
2021/06/15 05:55:33;;;;;;;7.07;4.07;;;26.70;99.90;;;;;;5034792;28;20034;-71
2021/06/15 05:57:59;;;;;;;11.75;3.72;;;27.50;99.90;;;;;;5033597;28;20091;-71
2021/06/15 06:00:24;;;;;;;7.35;4.22;;;26.00;99.90;;;;;;5034737;28;20025;-71
2021/06/15 06:02:51;;;;;;;7.25;4.15;;;26.20;99.90;;;;;;5034470;28;20022;-71
2021/06/15 06:10:26;;;;;;;5.97;3.58;;;27.00;99.90;;;;;;5035764;28;20512;-71
2021/06/15 06:12:52;;;;;;;11.75;3.95;;;27.20;99.90;;;;;;5034254;28;20029;-72
2021/06/15 06:15:18;;;;;;;9.55;4.40;;;27.00;99.90;;;;;;5034437;28;20045;-72
2021/06/15 06:17:43;;;;;;;7.18;3.72;;;26.30;99.90;;;;;;5034527;28;20017;-71
2021/06/15 06:20:11;;;;;;;11.45;4.53;;;26.40;99.90;;;;;;5036528;28;20021;-71
2021/06/15 06:22:37;;;;;;;6.22;4.40;;;26.30;99.90;;;;;;5037209;28;20499;-71
2021/06/15 06:25:05;;;;;;;9.13;4.90;;;26.00;99.90;;;;;;5037095;28;20025;-71
2021/06/15 06:27:31;;;;;;;4.60;4.00;;;25.50;99.90;;;;;;5035848;28;20033;-72
2021/06/15 06:29:57;;;;;;;9.27;5.43;;;24.70;99.90;;;;;;5034332;28;20110;-72
2021/06/15 06:32:22;;;;;;;6.90;4.63;;;24.60;99.90;;;;;;5034109;28;20093;-71
2021/06/15 06:34:48;;;;;;;6.85;4.30;;;24.10;99.90;;;;;;5033821;28;20072;-71
2021/06/15 06:37:13;;;;;;;7.03;4.57;;;23.30;99.90;;;;;;5033574;28;20025;-71
2021/06/15 06:39:41;;;;;;;8.02;4.35;;;22.80;99.90;;;;;;5033891;28;20398;-71
2021/06/15 06:42:07;;;;;;;7.47;5.18;;;22.80;99.90;;;;;;5033484;28;20026;-70
2021/06/15 06:44:33;;;;;;;8.88;3.88;;;22.80;99.90;;;;;;5029985;28;20029;-71
2021/06/15 06:46:59;;;;;;;6.63;4.32;;;23.00;99.90;;;;;;5029583;28;20026;-72
2021/06/15 06:49:24;;;;;;;5.95;3.88;;;22.90;99.90;;;;;;5033721;28;20026;-74
2021/06/15 06:51:50;;;;;;;10.75;4.53;;;22.90;99.90;;;;;;5033252;28;20489;-71
2021/06/15 06:54:15;;;;;;;8.57;4.38;;;23.00;99.90;;;;;;5033444;28;20056;-71
2021/06/15 06:56:41;;;;;;;5.07;4.07;;;22.60;99.90;;;;;;5033151;28;20048;-70
2021/06/15 06:59:07;;;;;;;5.82;3.90;;;22.80;99.90;;;;;;5033305;28;20037;-71
2021/06/15 07:01:32;;;;;;;6.68;3.90;;;22.80;99.90;;;;;;5033302;28;20030;-71
2021/06/15 07:03:58;;;;;;;5.68;4.18;;;23.10;99.90;;;;;;5033154;28;20075;-71
2021/06/15 07:06:23;;;;;;;8.80;3.95;;;23.30;99.90;;;;;;5033370;28;20036;-71
2021/06/15 07:08:49;;;;;;;6.43;3.78;;;23.20;99.90;;;;;;5033000;28;20025;-71
2021/06/15 07:11:15;;;;;;;6.95;3.50;;;23.20;99.90;;;;;;5033080;28;20040;-70
2021/06/15 07:13:40;;;;;;;11.10;4.75;;;23.40;99.90;;;;;;5032437;28;20120;-71
2021/06/15 07:16:06;;;;;;;7.18;4.07;;;23.50;99.90;;;;;;5032045;28;20500;-70
2021/06/15 07:18:36;;;;;;;11.55;4.72;;;23.50;99.90;;;;;;5032704;28;20022;-71
2021/06/15 07:21:03;;;;;;;5.35;3.35;;;23.60;99.90;;;;;;5031813;28;20026;-72
2021/06/15 07:23:28;;;;;;;9.93;4.15;;;23.60;99.90;;;;;;5033294;28;20029;-70
2021/06/15 07:25:54;;;;;;;7.55;4.50;;;23.90;99.90;;;;;;5033273;28;20017;-70
2021/06/15 07:28:19;;;;;;;3.20;2.63;;;24.10;99.90;;;;;;5031759;28;20079;-69
2021/06/15 07:30:45;;;;;;;8.65;3.60;;;24.30;99.90;;;;;;5032709;28;20415;-71
2021/06/15 07:33:11;;;;;;;14.20;4.93;;;24.30;99.90;;;;;;5032844;28;20032;-71
2021/06/15 07:35:36;;;;;;;7.65;3.90;;;24.20;99.90;;;;;;5032627;28;20108;-69
2021/06/15 07:38:02;;;;;;;8.20;3.72;;;24.20;99.90;;;;;;5032506;28;20041;-71
2021/06/15 07:40:28;;;;;;;5.82;2.78;;;24.50;99.90;;;;;;5033493;28;20021;-72
2021/06/15 07:42:56;;;;;;;6.28;3.65;;;24.60;99.90;;;;;;5032505;28;20037;-72
2021/06/15 07:45:23;;;;;;;4.25;3.40;;;24.20;99.90;;;;;;5024757;28;20052;-69
2021/06/15 07:47:49;;;;;;;6.13;3.13;;;24.40;99.90;;;;;;5032458;28;20397;-70
2021/06/15 07:50:16;;;;;;;10.02;3.70;;;24.70;99.90;;;;;;5031940;28;20038;-71
2021/06/15 07:52:42;;;;;;;4.05;2.67;;;24.90;99.90;;;;;;5031467;28;20029;-70
2021/06/15 07:55:09;;;;;;;8.40;3.33;;;24.70;99.90;;;;;;5031884;28;20032;-69
2021/06/15 07:57:34;;;;;;;4.82;2.75;;;24.90;99.90;;;;;;5053305;28;20022;-69
2021/06/15 08:00:00;;;;;;;6.35;3.33;;;25.00;99.90;;;;;;5035131;28;20032;-71
2021/06/15 08:02:28;;;;;;;6.75;3.70;;;25.20;99.90;;;;;;5031047;28;20029;-70
2021/06/15 08:04:53;;;;;;;7.82;3.33;;;25.10;99.90;;;;;;5032439;28;20025;-70
2021/06/15 08:07:19;;;;;;;4.15;2.85;;;25.00;99.90;;;;;;5033048;28;20044;-71
2021/06/15 08:09:45;;;;;;;7.95;3.50;;;24.80;99.90;;;;;;5032696;28;20018;-71
2021/06/15 08:12:11;;;;;;;6.97;3.58;;;25.10;99.90;;;;;;5033168;28;20048;-70
2021/06/15 08:14:36;;;;;;;5.65;3.20;;;25.60;99.90;;;;;;5035112;28;20043;-70
2021/06/15 08:17:02;;;;;;;8.80;3.00;;;25.70;99.90;;;;;;5033869;28;20527;-70
2021/06/15 08:19:27;;;;;;;5.10;2.80;;;26.00;99.90;;;;;;5032856;28;20030;-69
2021/06/15 08:21:53;;;;;;;6.90;3.55;;;26.20;99.90;;;;;;5035031;28;20075;-69
2021/06/15 08:24:19;;;;;;;8.75;3.78;;;26.20;99.90;;;;;;5036507;28;20071;-72
2021/06/15 08:26:45;;;;;;;11.20;7.25;;;26.10;99.90;;;;;;5039361;28;20017;-70
2021/06/15 08:29:11;;;;;;;8.25;3.75;;;26.20;99.90;;;;;;5038611;28;20033;-72
2021/06/15 08:31:37;;;;;;;5.20;3.08;;;26.20;99.90;;;;;;5035142;28;20397;-71
2021/06/15 08:34:03;;;;;;;7.53;3.13;;;26.30;99.90;;;;;;5036186;28;20026;-70
2021/06/15 08:36:28;;;;;;;5.32;3.20;;;26.50;99.90;;;;;;5036695;28;20048;-70
2021/06/15 08:38:54;;;;;;;6.90;2.95;;;26.90;99.90;;;;;;5036331;28;20099;-72
2021/06/15 08:41:21;;;;;;;5.13;2.53;;;27.00;99.90;;;;;;5036185;28;20032;-70
2021/06/15 08:43:49;;;;;;;4.75;2.70;;;26.80;99.90;;;;;;5034650;28;20079;-74
2021/06/15 08:46:15;;;;;;;6.25;4.15;;;26.50;99.90;;;;;;5034358;28;20022;-72
2021/06/15 08:48:41;;;;;;;9.32;5.60;;;26.60;99.90;;;;;;5035143;28;20033;-71
2021/06/15 08:51:07;;;;;;;6.50;2.30;;;27.10;99.90;;;;;;5037319;28;20040;-71
2021/06/15 08:53:36;;;;;;;5.68;2.05;;;27.20;99.90;;;;;;5038704;28;20108;-71
2021/06/15 08:56:22;;;;;;;7.95;3.50;;;27.20;99.90;;;;;;5036662;28;20057;-71
2021/06/15 08:59:18;;;;;;;3.63;2.05;;;27.20;99.90;;;;;;5018886;28;20441;-74
2021/06/15 09:01:45;;;;;;;2.92;2.13;;;27.40;99.90;;;;;;5030689;28;20477;-72
2021/06/15 09:04:11;;;;;;;2.25;1.92;;;27.30;99.90;;;;;;5035311;28;20071;-71
2021/06/15 09:06:36;;;;;;;4.60;2.17;;;27.20;99.90;;;;;;5035294;28;20029;-72
2021/06/15 09:09:03;;;;;;;1.83;1.65;;;27.40;99.90;;;;;;5035779;28;20036;-72
2021/06/15 09:11:46;;;;;;;5.28;1.83;;;27.20;99.90;;;;;;5035312;28;20034;-72
2021/06/15 09:14:12;;;;;;;3.20;2.50;;;27.50;99.90;;;;;;5032738;28;20033;-70
2021/06/15 09:16:37;;;;;;;2.92;2.10;;;27.40;99.90;;;;;;5035454;28;20025;-71
2021/06/15 09:19:18;;;;;;;4.68;2.35;;;27.60;99.90;;;;;;5035232;28;20037;-72
2021/06/15 09:21:46;;;;;;;2.17;1.98;;;27.60;99.90;;;;;;5035488;28;20025;-71
2021/06/15 09:24:12;;;;;;;3.13;1.73;;;27.50;99.90;;;;;;5033925;28;20276;-72
2021/06/15 09:26:52;;;;;;;5.68;2.80;;;27.00;99.90;;;;;;5035084;28;20022;-71
2021/06/15 09:29:19;;;;;;;1.83;1.63;;;27.10;99.90;;;;;;5035179;28;20045;-72
2021/06/15 09:31:52;;;;;;;5.10;2.47;;;27.10;99.90;;;;;;5034566;28;20036;-72
2021/06/15 09:34:18;;;;;;;3.72;1.73;;;27.40;99.90;;;;;;5035001;28;20037;-72
2021/06/15 09:36:44;;;;;;;7.10;2.35;;;27.90;99.90;;;;;;5034998;28;20021;-70
2021/06/15 09:39:09;;;;;;;2.78;1.83;;;27.90;99.90;;;;;;5036350;28;20045;-71
2021/06/15 09:41:40;;;;;;;2.15;1.95;;;28.10;99.90;;;;;;5037932;28;20033;-71
2021/06/15 09:44:13;;;;;;;4.88;1.70;;;28.10;99.90;;;;;;5036496;28;20025;-71
2021/06/15 09:46:50;;;;;;;2.70;2.00;;;28.20;99.90;;;;;;5035656;28;20025;-71
2021/06/15 09:49:34;;;;;;;2.83;1.63;;;28.20;99.90;;;;;;5032819;28;20321;-74
2021/06/15 09:52:18;;;;;;;3.00;1.80;;;28.20;99.90;;;;;;5032134;28;20053;-72
2021/06/15 09:54:50;;;;;;;7.50;1.83;;;28.20;99.90;;;;;;5034779;28;20049;-71
2021/06/15 09:57:26;;;;;;;5.05;2.42;;;28.00;99.90;;;;;;5034383;28;20026;-73
2021/06/15 10:00:19;;;;;;;3.47;1.75;;;27.70;99.90;;;;;;5035701;28;20017;-72
2021/06/15 10:02:47;;;;;;;4.60;1.88;;;28.00;99.90;;;;;;5034922;28;20021;-71
2021/06/15 10:05:32;;;;;;;2.53;1.77;;;28.30;99.90;;;;;;5034541;28;20495;-72
2021/06/15 10:08:03;;;;;;;3.55;1.60;;;28.30;99.90;;;;;;5036555;28;20028;-72
2021/06/15 10:10:32;;;;;;;5.13;2.53;;;28.10;99.90;;;;;;5037688;28;20060;-72
2021/06/15 10:12:58;;;;;;;6.38;1.70;;;28.20;99.90;;;;;;5037097;28;20029;-71
2021/06/15 10:15:24;;;;;;;2.55;1.30;;;28.50;98.50;;;;;;5035492;28;20044;-71
2021/06/15 10:17:50;;;;;;;2.35;1.27;;;28.20;98.80;;;;;;5036791;28;20017;-70
2021/06/15 10:20:27;;;;;;;8.38;1.55;;;28.60;96.80;;;;;;5037159;28;20022;-70
2021/06/15 10:22:54;;;;;;;6.57;2.08;;;28.80;97.00;;;;;;5036848;28;20026;-71
2021/06/15 10:25:21;;;;;;;2.95;1.77;;;29.00;96.30;;;;;;5038788;28;20032;-72
2021/06/15 10:27:50;;;;;;;2.20;1.52;;;29.00;93.70;;;;;;5034641;28;20029;-71
2021/06/15 10:30:17;;;;;;;3.67;1.95;;;28.80;92.00;;;;;;5034054;28;20033;-72
2021/06/15 10:32:58;;;;;;;4.32;2.25;;;29.00;90.90;;;;;;5035935;28;20088;-73
2021/06/15 10:35:37;;;;;;;3.55;1.55;;;28.80;92.40;;;;;;5034769;28;20112;-72
2021/06/15 10:38:04;;;;;;;3.10;1.60;;;28.90;89.50;;;;;;5034886;28;20025;-74
2021/06/15 10:40:33;;;;;;;2.30;1.70;;;29.40;84.00;;;;;;5034335;28;20035;-71
2021/06/15 10:43:43;;;;;;;2.80;2.13;;;29.30;80.70;;;;;;5035177;28;20026;-70
2021/06/15 10:46:11;;;;;;;2.90;2.10;;;29.60;82.30;;;;;;5006988;28;20044;-72
2021/06/15 10:48:44;;;;;;;2.03;1.60;;;29.20;79.60;;;;;;5036934;28;20035;-72
2021/06/15 10:51:55;;;;;;;1.65;1.35;;;28.70;75.70;;;;;;5032852;28;20057;-70
2021/06/15 10:54:34;;;;;;;;;;;28.50;70.20;;;;;;5019803;28;20044;-71
2021/06/15 10:57:14;;;;;;;2.15;1.50;;;28.80;70.10;;;;;;5034503;28;19905;-73
2021/06/15 10:59:59;;;;;;;2.80;1.38;;;28.80;66.00;;;;;;5034139;28;20033;-71
2021/06/15 11:02:28;;;;;;;1.92;1.30;;;28.20;59.90;;;;;;5033917;28;20014;-70
2021/06/15 11:04:54;;;;;;;2.67;1.25;;;28.90;61.10;;;;;;5032753;28;20029;-71
2021/06/15 11:07:33;;;;;;;3.05;1.58;;;29.00;60.20;;;;;;5034198;28;20044;-70
2021/06/15 11:09:58;;;;;;;1.95;1.60;;;28.90;60.70;;;;;;5036553;28;20540;-70
2021/06/15 11:12:24;;;;;;;1.83;1.30;;;28.90;61.10;;;;;;5035109;28;20113;-71
2021/06/15 11:15:09;;;;;;;3.42;1.80;;;29.20;59.70;;;;;;5034392;28;20116;-70
2021/06/15 11:17:45;;;;;;;3.50;1.73;;;29.20;59.40;;;;;;5031794;28;20079;-71
2021/06/15 11:20:11;;;;;;;3.92;1.40;;;28.80;57.50;;;;;;5032995;28;20024;-71
2021/06/15 11:22:37;;;;;;;3.15;1.48;;;29.10;59.50;;;;;;5033357;28;20494;-70
2021/06/15 11:25:03;;;;;;;3.00;1.40;;;29.00;57.20;;;;;;5034225;28;20032;-71
2021/06/15 11:27:34;;;;;;;1.90;1.35;;;28.40;52.40;;;;;;5031224;28;20048;-72
2021/06/15 11:30:11;;;;;;;2.53;2.05;;;28.60;55.00;;;;;;5026721;28;20076;-70
2021/06/15 11:32:37;;;;;;;2.80;1.70;;;28.40;54.80;;;;;;5025974;28;20084;-71
2021/06/15 11:35:03;;;;;;;3.53;1.17;;;28.40;53.90;;;;;;5032753;28;20057;-70
2021/06/15 11:37:42;;;;;;;1.63;1.52;;;28.50;53.40;;;;;;5031154;28;20059;-71
2021/06/15 11:40:10;;;;;;;2.53;1.50;;;28.40;51.50;;;;;;5029619;28;20354;-72
2021/06/15 11:42:37;;;;;;;2.20;1.20;;;28.40;53.40;;;;;;5032823;28;20314;-71
2021/06/15 11:45:29;;;;;;;1.70;1.20;;;28.60;53.50;;;;;;5032402;28;20029;-72
2021/06/15 11:48:12;;;;;;;5.78;1.58;;;28.30;49.20;;;;;;5032641;28;20540;-72
2021/06/15 11:50:40;;;;;;;1.98;1.38;;;28.30;49.90;;;;;;5031329;28;20036;-72
2021/06/15 11:53:11;;;;;;;3.03;1.50;;;29.10;51.00;;;;;;5032915;28;20529;-71
2021/06/15 11:55:50;;;;;;;1.77;1.40;;;29.00;48.70;;;;;;5032277;28;20060;-73
2021/06/15 11:58:27;;;;;;;2.58;1.45;;;29.10;49.90;;;;;;5032582;28;20038;-71
2021/06/15 12:00:56;;;;;;;4.55;1.38;;;29.30;46.50;;;;;;5032026;28;20042;-73
2021/06/15 12:03:24;;;;;;;1.75;1.33;;;29.50;44.70;;;;;;5032230;28;20028;-70
2021/06/15 12:05:52;;;;;;;2.10;1.10;;;29.90;44.20;;;;;;5032374;28;20079;-72
2021/06/15 12:08:18;;;;;;;4.15;1.27;;;29.70;43.50;;;;;;5031619;28;20029;-72
2021/06/15 12:10:45;;;;;;;3.28;1.30;;;29.40;43.60;;;;;;5033493;28;20036;-73
2021/06/15 12:13:12;;;;;;;5.30;1.60;;;29.70;41.50;;;;;;5033413;28;20077;-72
2021/06/15 12:15:43;;;;;;;1.63;1.10;;;29.80;39.60;;;;;;5032815;28;20128;-72
2021/06/15 12:18:21;;;;;;;4.95;2.03;;;30.10;38.30;;;;;;5032527;28;20029;-72
2021/06/15 12:20:55;;;;;;;3.50;1.65;;;29.80;38.60;;;;;;5033019;28;20104;-72
2021/06/15 12:23:28;;;;;;;3.38;1.27;;;30.00;40.20;;;;;;5031179;28;20159;-71
2021/06/15 12:25:55;;;;;;;3.13;1.33;;;30.60;39.50;;;;;;5031100;28;20021;-71
2021/06/15 12:28:23;;;;;;;1.30;1.13;;;30.30;39.60;;;;;;5031005;28;20029;-72
2021/06/15 12:31:24;;;;;;;1.42;1.05;;;30.20;35.70;;;;;;5032803;28;20041;-72
2021/06/15 12:33:55;;;;;;;1.95;1.75;;;30.10;37.80;;;;;;4971430;28;20031;-72
2021/06/15 12:36:24;;;;;;;4.65;1.80;;;30.50;38.00;;;;;;5022327;28;20060;-73
2021/06/15 12:38:50;;;;;;;3.03;1.65;;;30.60;38.10;;;;;;5031534;28;20504;-71
2021/06/15 12:41:25;;;;;;;2.97;1.30;;;30.70;36.30;;;;;;5032705;28;20055;-71
2021/06/15 12:43:52;;;;;;;1.92;1.38;;;30.50;35.00;;;;;;5031983;28;20112;-73
2021/06/15 12:46:31;;;;;;;4.75;1.40;;;30.60;34.20;;;;;;5032303;28;20033;-70
2021/06/15 12:48:59;;;;;;;1.60;1.40;;;30.60;33.30;;;;;;5031024;28;20026;-71
2021/06/15 12:51:32;;;;;;;1.40;1.30;;;30.30;34.00;;;;;;5032321;28;20092;-73
2021/06/15 12:54:04;;;;;;;2.25;1.40;;;30.10;32.10;;;;;;5031408;28;20030;-71
2021/06/15 12:56:32;;;;;;;5.13;1.50;;;29.90;30.60;;;;;;5034174;28;20100;-74
2021/06/15 12:59:10;;;;;;;1.95;1.48;;;29.90;30.40;;;;;;5035620;28;20050;-71
2021/06/15 13:01:37;;;;;;;1.02;0.93;;;29.70;29.60;;;;;;5035006;28;20131;-71
2021/06/15 13:04:25;;;;;;;4.85;1.42;;;29.70;29.80;;;;;;5034148;28;20053;-73
2021/06/15 13:06:54;;;;;;;2.63;1.55;;;29.70;29.70;;;;;;5032238;28;20025;-72